Latest Coastal Weather Observations for Tewantin

IDQ60701

Issued at 10:15 pm EST Friday 28 November 2014 (issued every 10 minutes, with the page automatically refreshed every 10 minutes)

About coastal observations | Map of coastal stations | Coastal observations for QLD | Marine services | Other Formats
Station Details ID: 040908 Name: TEWANTIN RSL PARK Lat: -26.39 Lon: 153.04 Height: 6.4 m
Data from the previous 72 hours. | See also: Recent months at Tewantin
Date/Time
EST
Temp

°C
Wind Pressure Rain
since 9am
mm
Weather Cloud Vis
km
Sea
Height
m
Swell
Dir
 
Speed
knots
Gust
knots
hPa Trend Height
m
Period
s
Dir
28/10:00pm 23.0 ESE 9 13 1018.9 - 9.2 - - - - - - -
28/09:30pm 23.1 ESE 9 13 1018.9 - 9.0 - - - - - - -
28/09:00pm 23.0 ESE 7 12 1018.9 - 9.0 - - - - - - -
28/08:30pm 23.1 ESE 11 15 1018.7 - 9.0 - - - - - - -
28/08:00pm 23.1 ESE 9 15 1018.4 - 9.0 - - - - - - -
28/07:30pm 23.3 ESE 13 19 1018.2 - 9.0 - - - - - - -
28/07:00pm 23.1 ESE 12 19 1017.8 - 9.0 - - - - - - -
28/06:30pm 22.6 ESE 10 16 1017.6 - 9.0 - - - - - - -
28/06:00pm 22.9 ESE 7 13 1017.4 - 8.4 Recent precip. - - - - - -
28/05:30pm 22.0 E 7 11 1017.3 - 8.2 - - - - - - -
28/05:00pm 21.9 SSE 5 8 1017.1 - 7.4 - - - - - - -
28/04:30pm 22.4 ESE 7 11 1016.7 - 4.6 - - - - - - -
28/04:00pm 23.7 SE 9 13 1016.6 - 2.8 - - - - - - -
28/03:30pm 24.6 ESE 8 15 1016.9 - 2.8 - - - - - - -
28/03:00pm 24.6 ESE 9 15 1016.9 - 2.8 - - - - - - -
28/02:30pm 24.7 ESE 9 15 1016.7 - 2.8 - - - - - - -
28/02:00pm 24.7 ESE 8 15 1017.0 - 2.8 - - - - - - -
28/01:30pm 24.1 ESE 6 12 1017.5 - 2.8 - - - - - - -
28/01:00pm 23.8 E 2 6 1017.5 - 2.8 - - - - - - -
28/12:30pm 22.3 ESE 2 5 1017.9 - 2.8 - - - - - - -
28/12:00pm 21.7 ESE 10 16 1018.4 - 0.8 Rain - - - - - -
28/11:30am 24.6 ESE 10 15 1018.2 - 0.2 - - - - - - -
28/11:00am 23.4 ESE 8 13 1018.7 - 0.2 - - - - - - -
28/10:30am 24.6 E 8 12 1018.2 - 0.2 - - - - - - -
28/10:00am 24.9 E 9 13 1018.2 - 0.2 - - - - - - -
28/09:30am 24.0 SE 7 11 1018.3 - 0.0 - - - - - - -
28/09:00am 24.2 S 6 9 1018.2 - 4.6 - - - - - - -
28/08:30am 23.8 S 8 12 1017.9 - 4.6 - - - - - - -
28/08:00am 23.8 S 7 11 1017.7 - 4.6 - - - - - - -
28/07:30am 22.0 S 5 9 1017.6 - 4.6 - - - - - - -
28/07:00am 21.4 S 7 10 1017.8 - 4.4 - - - - - - -
28/06:30am 21.3 S 4 7 1017.5 - 4.2 - - - - - - -
28/06:00am 20.9 SSW 2 5 1017.1 - 4.0 - - - - - - -
28/05:30am 20.3 SSW 4 6 1016.8 - 4.0 - - - - - - -
28/05:00am 20.2 CALM 0 0 1016.6 - 4.0 - - - - - - -
28/04:30am 20.0 WSW 1 5 1016.4 - 4.0 - - - - - - -
28/04:00am 20.1 CALM 0 3 1016.0 - 4.0 - - - - - - -
28/03:30am 19.8 ENE 6 13 1016.1 - 4.0 - - - - - - -
28/03:00am 21.2 S 2 5 1015.5 - 1.0 Recent precip. - - - - - -
28/02:30am 21.5 SSE 4 7 1015.4 - 0.8 - - - - - - -
28/02:00am 22.2 SSW 5 8 1015.3 - 0.8 - - - - - - -
28/01:30am 22.5 SSE 2 4 1015.5 - 0.6 - - - - - - -
28/01:00am 23.2 SSW 2 5 1015.6 - 0.2 - - - - - - -
28/12:30am 23.3 CALM 0 3 1015.7 - 0.2 - - - - - - -
28/12:00am 23.3 SW 3 5 1016.3 - 0.2 - - - - - - -
 
Date/Time
EST
Temp

°C
Wind Pressure Rain
since 9am
mm
Weather Cloud Vis
km
Sea
Height
m
Swell
Dir
 
Speed
knots
Gust
knots
hPa Trend Height
m
Period
s
Dir
27/11:30pm 23.6 CALM 0 0 1016.1 - 0.2 - - - - - - -
27/11:00pm 23.9 ENE 3 5 1016.6 - 0.2 - - - - - - -
27/10:30pm 24.0 ENE 5 8 1016.7 - 0.2 - - - - - - -
27/10:00pm 24.2 ENE 5 10 1017.0 - 0.2 - - - - - - -
27/09:30pm 24.3 E 4 5 1016.9 - 0.0 - - - - - - -
27/09:00pm 24.7 E 5 7 1016.7 - 0.0 - - - - - - -
27/08:30pm 24.6 NE 6 8 1016.2 - 0.0 - - - - - - -
27/08:00pm 24.6 ENE 4 7 1016.3 - 0.0 - - - - - - -
27/07:30pm 24.8 E 5 7 1016.3 - 0.0 - - - - - - -
27/07:00pm 24.7 E 5 7 1015.8 - 0.0 - - - - - - -
27/06:30pm 24.7 ENE 6 9 1015.3 - 0.0 - - - - - - -
27/06:00pm 25.2 NE 6 10 1014.6 - 0.0 - - - - - - -
27/05:30pm 25.6 NE 7 10 1014.3 - 0.0 - - - - - - -
27/05:00pm 25.8 NE 7 10 1013.5 - 0.0 - - - - - - -
27/04:30pm 25.9 NE 9 12 1012.9 - 0.0 - - - - - - -
27/04:00pm 26.4 NE 9 13 1012.8 - 0.0 - - - - - - -
27/03:30pm 26.3 NE 9 13 1013.1 - 0.0 - - - - - - -
27/03:00pm 26.9 ENE 9 14 1013.4 - 0.0 - - - - - - -
27/02:30pm 27.1 NE 9 13 1013.5 - 0.0 - - - - - - -
27/02:00pm 27.2 NE 10 14 1013.7 - 0.0 - - - - - - -
27/01:30pm 27.7 NE 9 15 1014.0 - 0.0 - - - - - - -
27/01:00pm 27.4 NE 10 14 1014.2 - 0.0 - - - - - - -
27/12:30pm 28.1 NE 9 12 1014.5 - 0.0 - - - - - - -
27/12:00pm 27.8 NE 8 13 1014.9 - 0.0 - - - - - - -
27/11:30am 28.2 NE 7 12 1015.0 - 0.0 - - - - - - -
27/11:00am 28.3 NE 7 12 1015.5 - 0.0 - - - - - - -
27/10:30am 27.7 NE 6 9 1015.7 - 0.0 - - - - - - -
27/10:00am 27.1 NNE 6 9 1016.1 - 0.0 - - - - - - -
27/09:30am 26.5 E 3 8 1016.4 - 0.0 - - - - - - -
27/09:00am 27.0 ENE 3 5 1016.4 - 0.0 - - - - - - -
27/08:30am 26.2 N 5 7 1016.7 - 0.0 - - - - - - -
27/08:00am 25.8 NNE 3 6 1016.8 - 0.0 - - - - - - -
27/07:30am 25.0 N 4 8 1016.8 - 0.0 - - - - - - -
27/07:00am 25.0 NNW 4 7 1016.7 - 0.0 - - - - - - -
27/06:30am 23.9 NNW 1 4 1016.2 - 0.0 - - - - - - -
27/06:00am 22.9 CALM 0 0 1016.2 - 0.0 - - - - - - -
27/05:30am 22.6 CALM 0 0 1016.0 - 0.0 - - - - - - -
27/05:00am 22.6 CALM 0 0 1015.7 - 0.0 - - - - - - -
27/04:30am 22.4 CALM 0 0 1015.3 - 0.0 - - - - - - -
27/04:00am 22.4 WSW 1 3 1015.2 - 0.0 - - - - - - -
27/03:30am 22.2 SSW 1 4 1015.3 - 0.0 - - - - - - -
27/03:00am 22.2 WNW 3 4 1014.9 - 0.0 - - - - - - -
27/02:30am 22.2 NW 2 5 1014.8 - 0.0 - - - - - - -
27/02:00am 22.4 CALM 0 0 1014.9 - 0.0 - - - - - - -
27/01:30am 22.4 CALM 0 0 1015.1 - 0.0 - - - - - - -
27/01:00am 22.1 CALM 0 0 1015.5 - 0.0 - - - - - - -
27/12:30am 22.4 CALM 0 0 1015.9 - 0.0 - - - - - - -
27/12:00am 22.4 CALM 0 0 1016.1 - 0.0 - - - - - - -
 
Date/Time
EST
Temp

°C
Wind Pressure Rain
since 9am
mm
Weather Cloud Vis
km
Sea
Height
m
Swell
Dir
 
Speed
knots
Gust
knots
hPa Trend Height
m
Period
s
Dir
26/11:30pm 22.4 CALM 0 0 1016.6 - 0.0 - - - - - - -
26/11:00pm 22.7 CALM 0 0 1017.1 - 0.0 - - - - - - -
26/10:30pm 22.9 SW 1 4 1017.4 - 0.0 - - - - - - -
26/10:00pm 23.0 SSW 1 3 1017.6 - 0.0 - - - - - - -
26/09:30pm 23.1 CALM 0 0 1017.5 - 0.0 - - - - - - -
26/09:00pm 23.5 E 1 4 1017.4 - 0.0 - - - - - - -
26/08:30pm 23.5 ENE 3 4 1017.2 - 0.0 - - - - - - -
26/08:00pm 23.6 NE 2 5 1016.8 - 0.0 - - - - - - -
26/07:30pm 23.9 NE 4 6 1016.7 - 0.0 - - - - - - -
26/07:00pm 23.9 NE 3 5 1016.5 - 0.0 - - - - - - -
26/06:30pm 24.3 NE 5 7 1016.2 - 0.0 - - - - - - -
26/06:00pm 24.7 NE 4 6 1016.1 - 0.0 - - - - - - -
26/05:30pm 24.8 NE 7 9 1015.8 - 0.0 - - - - - - -
26/05:00pm 25.4 NE 7 9 1015.4 - 0.0 - - - - - - -
26/04:30pm 25.8 NE 7 12 1015.0 - 0.0 - - - - - - -
26/04:00pm 26.0 NE 8 13 1014.8 - 0.0 - - - - - - -
26/03:30pm 26.2 ENE 9 13 1014.8 - 0.0 - - - - - - -
26/03:00pm 26.5 NE 11 15 1014.8 - 0.0 - - - - - - -
26/02:30pm 26.5 NE 9 13 1014.9 - 0.0 - - - - - - -
26/02:00pm 27.1 NE 10 15 1015.1 - 0.0 - - - - - - -
26/01:30pm 26.2 NE 10 15 1015.3 - 0.0 - - - - - - -
26/01:00pm 26.4 NE 11 17 1015.8 - 0.0 - - - - - - -
26/12:30pm 27.1 NE 10 17 1016.2 - 0.0 - - - - - - -
26/12:00pm 27.1 NE 9 15 1016.6 - 0.0 - - - - - - -
26/11:30am 27.5 NE 8 13 1016.6 - 0.0 - - - - - - -
26/11:00am 27.0 NE 8 12 1016.8 - 0.0 - - - - - - -
26/10:30am 26.7 NE 7 13 1017.0 - 0.0 - - - - - - -
26/10:00am 26.8 ENE 8 13 1016.9 - 0.0 - - - - - - -
26/09:30am 26.6 NNE 7 13 1017.0 - 0.0 - - - - - - -
26/09:00am 25.6 NNE 7 11 1017.2 - 0.0 - - - - - - -
26/08:30am 26.6 NNE 8 14 1017.1 - 0.0 - - - - - - -
26/08:00am 26.3 NNE 7 10 1017.3 - 0.0 - - - - - - -
26/07:30am 25.5 NNE 7 11 1016.9 - 0.0 - - - - - - -
26/07:00am 25.4 NNE 4 6 1016.7 - 0.0 - - - - - - -
26/06:30am 24.3 N 4 6 1016.6 - 0.0 - - - - - - -
26/06:00am 23.4 CALM 0 0 1016.2 - 0.0 - - - - - - -
26/05:30am 22.8 CALM 0 3 1015.9 - 0.0 - - - - - - -
26/05:00am 22.3 CALM 0 0 1015.8 - 0.0 - - - - - - -
26/04:30am 22.0 SW 3 4 1015.6 - 0.0 - - - - - - -
26/04:00am 22.3 CALM 0 0 1015.3 - 0.0 - - - - - - -
26/03:30am 22.6 CALM 0 0 1015.3 - 0.0 - - - - - - -
26/03:00am 22.9 N 1 3 1015.1 - 0.0 - - - - - - -
26/02:30am 23.2 N 4 5 1015.1 - 0.0 - - - - - - -
26/02:00am 23.3 N 3 5 1015.4 - 0.0 - - - - - - -
26/01:30am 23.4 N 4 5 1015.4 - 0.0 - - - - - - -
26/01:00am 23.7 N 5 7 1015.8 - 0.0 - - - - - - -
26/12:30am 24.1 ENE 2 4 1016.1 - 0.0 - - - - - - -
26/12:00am 24.3 NNE 5 7 1016.6 - 0.0 - - - - - - -
 
Date/Time
EST
Temp

°C
Wind Pressure Rain
since 9am
mm
Weather Cloud Vis
km
Sea
Height
m
Swell
Dir
 
Speed
knots
Gust
knots
hPa Trend Height
m
Period
s
Dir
25/11:30pm 24.3 NNE 6 9 1016.5 - 0.0 - - - - - - -
25/11:00pm 24.5 NNE 5 7 1016.5 - 0.0 - - - - - - -
25/10:30pm 24.6 NNE 5 7 1016.5 - 0.0 - - - - - - -

Other Formats:

Comma delimited format used in spreadsheet applications
http://www.bom.gov.au/fwo/IDQ60701/IDQ60701.94570.axf

JavaScript Object Notation format (JSON) in row-major order
http://www.bom.gov.au/fwo/IDQ60701/IDQ60701.94570.json